createdAt,value
2019-04-06T00:00:29.411Z,135.00
2019-04-06T00:01:29.388Z,135.00
2019-04-06T00:02:29.403Z,135.00
2019-04-06T00:03:29.439Z,135.00
2019-04-06T00:04:29.383Z,135.00
2019-04-06T00:05:29.442Z,135.00
2019-04-06T00:06:29.431Z,135.00
2019-04-06T00:07:29.387Z,135.00
2019-04-06T00:08:29.405Z,135.00
2019-04-06T00:09:29.431Z,135.00
2019-04-06T00:10:29.403Z,135.00
2019-04-06T00:11:29.416Z,135.00
2019-04-06T00:12:29.451Z,135.00
2019-04-06T00:13:29.460Z,135.00
2019-04-06T00:14:29.420Z,135.00
2019-04-06T00:15:29.421Z,135.00
2019-04-06T00:16:29.406Z,135.00
2019-04-06T00:17:29.442Z,135.00
2019-04-06T00:18:29.493Z,135.00
2019-04-06T00:19:29.409Z,135.00
2019-04-06T00:20:29.436Z,135.00
2019-04-06T00:21:29.447Z,135.00
2019-04-06T00:22:29.484Z,101.39
2019-04-06T00:23:29.428Z,90.00
2019-04-06T00:24:29.454Z,100.80
2019-04-06T00:25:29.399Z,135.00
2019-04-06T00:26:29.409Z,125.66
2019-04-06T00:27:29.481Z,90.00
2019-04-06T00:28:29.411Z,90.00
2019-04-06T00:29:29.447Z,97.17
2019-04-06T00:30:29.441Z,135.00
2019-04-06T00:31:29.398Z,135.00
2019-04-06T00:32:29.412Z,135.00
2019-04-06T00:33:29.433Z,135.00
2019-04-06T00:34:29.421Z,135.00
2019-04-06T00:35:29.457Z,135.00
2019-04-06T00:36:29.459Z,135.00
2019-04-06T00:37:29.426Z,135.00
2019-04-06T00:38:29.435Z,135.00
2019-04-06T00:39:29.454Z,135.00
2019-04-06T00:40:29.411Z,135.00
2019-04-06T00:41:29.443Z,135.00
2019-04-06T00:42:29.532Z,135.00
2019-04-06T00:43:29.425Z,135.00
2019-04-06T00:44:29.434Z,135.00
2019-04-06T00:45:29.447Z,135.00
2019-04-06T00:46:29.424Z,135.00
2019-04-06T00:47:29.437Z,135.00
2019-04-06T00:48:29.468Z,115.59
2019-04-06T00:49:29.417Z,90.00
2019-04-06T00:50:29.460Z,90.00
2019-04-06T00:51:29.460Z,90.00
2019-04-06T00:52:29.436Z,90.00
2019-04-06T00:53:29.488Z,90.00
2019-04-06T00:54:29.565Z,90.00
2019-04-06T00:55:29.431Z,90.00
2019-04-06T00:56:29.477Z,90.00
2019-04-06T00:57:29.464Z,90.00
2019-04-06T00:58:29.435Z,90.00
2019-04-06T00:59:29.471Z,90.00
2019-04-06T01:00:29.471Z,90.00
2019-04-06T01:01:29.436Z,90.00
2019-04-06T01:02:29.445Z,90.00
2019-04-06T01:03:29.472Z,90.00
2019-04-06T01:04:29.465Z,90.00
2019-04-06T01:05:29.476Z,90.00
2019-04-06T01:06:29.480Z,90.00
2019-04-06T01:07:29.458Z,90.00
2019-04-06T01:08:29.451Z,90.00
2019-04-06T01:09:29.480Z,90.00
2019-04-06T01:10:29.442Z,90.00
2019-04-06T01:11:29.460Z,90.00
2019-04-06T01:12:29.497Z,90.00
2019-04-06T01:13:29.501Z,90.00
2019-04-06T01:14:29.461Z,90.00
2019-04-06T01:15:29.465Z,90.00
2019-04-06T01:16:29.440Z,90.00
2019-04-06T01:17:29.479Z,90.00
2019-04-06T01:18:29.547Z,134.19
2019-04-06T01:19:29.452Z,100.55
2019-04-06T01:20:29.475Z,90.00
2019-04-06T01:21:29.493Z,90.00
2019-04-06T01:22:29.444Z,90.00
2019-04-06T01:23:29.472Z,90.00
2019-04-06T01:24:29.524Z,90.00
2019-04-06T01:25:29.451Z,101.27
2019-04-06T01:26:29.464Z,135.00
2019-04-06T01:27:29.499Z,135.00
2019-04-06T01:28:29.438Z,135.00
2019-04-06T01:29:29.493Z,135.00
2019-04-06T01:30:29.552Z,135.00
2019-04-06T01:31:29.456Z,135.00
2019-04-06T01:32:29.492Z,135.00
2019-04-06T01:33:29.489Z,135.00
2019-04-06T01:34:29.458Z,158.06
2019-04-06T01:35:29.485Z,225.00
2019-04-06T01:36:29.494Z,225.00
2019-04-06T01:37:29.460Z,225.00
2019-04-06T01:38:29.486Z,225.00
2019-04-06T01:39:29.502Z,211.37
2019-04-06T01:40:29.458Z,90.00
2019-04-06T01:41:29.529Z,90.00
2019-04-06T01:42:29.527Z,90.00
2019-04-06T01:43:29.446Z,90.00
2019-04-06T01:44:29.482Z,90.00
2019-04-06T01:45:29.504Z,90.00
2019-04-06T01:46:29.463Z,90.00
2019-04-06T01:47:29.523Z,97.15
2019-04-06T01:48:29.500Z,90.00
2019-04-06T01:49:29.471Z,90.00
2019-04-06T01:50:29.516Z,90.00
2019-04-06T01:51:29.485Z,113.98
2019-04-06T01:52:29.484Z,90.00
2019-04-06T01:53:29.500Z,122.88
2019-04-06T01:54:29.486Z,135.00
2019-04-06T01:55:29.473Z,135.00
2019-04-06T01:56:29.507Z,135.00
2019-04-06T01:57:29.525Z,135.00
2019-04-06T01:58:29.481Z,135.00
2019-04-06T01:59:29.598Z,135.00
2019-04-06T02:00:29.571Z,135.00
2019-04-06T02:01:29.470Z,135.00
2019-04-06T02:02:29.488Z,135.00
2019-04-06T02:03:29.528Z,135.00
2019-04-06T02:04:29.477Z,120.44
2019-04-06T02:05:29.524Z,90.00
2019-04-06T02:06:29.555Z,90.00
2019-04-06T02:07:29.480Z,94.71
2019-04-06T02:08:29.494Z,90.00
2019-04-06T02:09:29.511Z,90.00
2019-04-06T02:10:29.491Z,142.92
2019-04-06T02:11:29.498Z,131.96
2019-04-06T02:12:29.567Z,109.21
2019-04-06T02:13:29.479Z,135.00
2019-04-06T02:14:29.502Z,135.00
2019-04-06T02:15:29.504Z,135.00
2019-04-06T02:16:29.496Z,135.00
2019-04-06T02:17:29.517Z,135.00
2019-04-06T02:18:29.539Z,135.00
2019-04-06T02:19:29.558Z,135.00
2019-04-06T02:20:29.478Z,135.00
2019-04-06T02:21:29.557Z,135.00
2019-04-06T02:22:29.528Z,135.00
2019-04-06T02:23:29.533Z,135.00
2019-04-06T02:24:29.888Z,135.00
2019-04-06T02:25:29.500Z,135.00
2019-04-06T02:26:31.075Z,135.00
2019-04-06T02:27:29.565Z,135.00
2019-04-06T02:28:29.487Z,135.00
2019-04-06T02:29:29.539Z,135.00
2019-04-06T02:30:29.558Z,135.00
2019-04-06T02:31:29.481Z,135.00
2019-04-06T02:32:29.633Z,135.00
2019-04-06T02:33:29.507Z,135.00
2019-04-06T02:34:29.558Z,315.00
2019-04-06T02:35:29.519Z,251.42
2019-04-06T02:36:29.736Z,225.00
2019-04-06T02:37:29.485Z,225.00
2019-04-06T02:38:29.514Z,225.00
2019-04-06T02:39:29.514Z,225.00
2019-04-06T02:40:29.521Z,225.00
2019-04-06T02:41:29.678Z,225.00
2019-04-06T02:42:29.562Z,225.00
2019-04-06T02:43:29.634Z,215.31
2019-04-06T02:44:29.518Z,90.00
2019-04-06T02:45:29.545Z,90.00
2019-04-06T02:46:31.136Z,90.00
2019-04-06T02:47:29.554Z,90.00
2019-04-06T02:48:29.590Z,90.00
2019-04-06T02:49:29.507Z,90.00
2019-04-06T02:50:29.526Z,90.00
2019-04-06T02:51:29.600Z,90.00
2019-04-06T02:52:29.523Z,90.00
2019-04-06T02:53:29.539Z,74.93
2019-04-06T02:54:29.799Z,270.00
2019-04-06T02:55:29.518Z,270.00
2019-04-06T02:56:44.278Z,276.32
2019-04-06T02:57:29.565Z,270.00
2019-04-06T02:58:29.514Z,270.00
2019-04-06T02:59:29.542Z,270.00
2019-04-06T03:00:29.574Z,313.03
2019-04-06T03:01:29.573Z,285.60
2019-04-06T03:02:29.530Z,266.56
2019-04-06T03:03:29.552Z,158.80
2019-04-06T03:04:29.536Z,258.23
2019-04-06T03:05:29.558Z,270.00
2019-04-06T03:06:29.589Z,270.00
2019-04-06T03:07:29.526Z,270.00
2019-04-06T03:08:29.564Z,270.00
2019-04-06T03:09:29.766Z,270.00
2019-04-06T03:10:29.521Z,270.00
2019-04-06T03:11:29.591Z,270.00
2019-04-06T03:12:29.546Z,270.00
2019-04-06T03:13:29.528Z,270.00
2019-04-06T03:14:29.727Z,273.80
2019-04-06T03:15:29.541Z,270.00
2019-04-06T03:16:29.557Z,270.00
2019-04-06T03:17:29.567Z,269.21
2019-04-06T03:18:29.580Z,135.00
2019-04-06T03:19:29.558Z,135.00
2019-04-06T03:20:29.556Z,135.00
2019-04-06T03:21:29.570Z,135.00
2019-04-06T03:22:29.616Z,135.00
2019-04-06T03:23:29.551Z,135.00
2019-04-06T03:24:29.570Z,135.00
2019-04-06T03:25:29.549Z,135.00
2019-04-06T03:26:29.548Z,135.00
2019-04-06T03:27:29.684Z,135.00
2019-04-06T03:28:29.512Z,135.00
2019-04-06T03:29:29.591Z,135.00
2019-04-06T03:30:29.601Z,135.00
2019-04-06T03:31:29.551Z,240.10
2019-04-06T03:32:29.598Z,225.00
2019-04-06T03:33:29.793Z,225.00
2019-04-06T03:34:29.541Z,225.00
2019-04-06T03:35:29.730Z,225.00
2019-04-06T03:36:29.610Z,225.00
2019-04-06T03:37:29.561Z,225.00
2019-04-06T03:38:29.556Z,225.00
2019-04-06T03:39:29.558Z,225.00
2019-04-06T03:40:29.556Z,225.00
2019-04-06T03:41:29.666Z,210.29
2019-04-06T03:42:29.584Z,180.00
2019-04-06T03:43:29.524Z,180.00
2019-04-06T03:44:29.678Z,180.00
2019-04-06T03:45:29.588Z,180.00
2019-04-06T03:46:29.540Z,180.00
2019-04-06T03:47:29.600Z,180.00
2019-04-06T03:48:29.766Z,180.00
2019-04-06T03:49:29.537Z,180.00
2019-04-06T03:50:29.569Z,169.86
2019-04-06T03:51:29.579Z,135.00
2019-04-06T03:52:29.627Z,135.00
2019-04-06T03:53:29.584Z,135.00
2019-04-06T03:54:29.598Z,135.00
2019-04-06T03:55:29.555Z,135.00
2019-04-06T03:56:29.591Z,135.00
2019-04-06T03:57:29.692Z,135.00
2019-04-06T03:58:29.558Z,135.00
2019-04-06T03:59:29.574Z,135.00
2019-04-06T04:00:29.585Z,135.00
2019-04-06T04:01:29.599Z,135.00
2019-04-06T04:02:29.571Z,135.00
2019-04-06T04:03:29.642Z,135.00
2019-04-06T04:04:29.568Z,135.00
2019-04-06T04:05:29.590Z,135.00
2019-04-06T04:06:29.587Z,135.00
2019-04-06T04:07:29.551Z,135.00
2019-04-06T04:08:29.742Z,135.00
2019-04-06T04:09:29.598Z,135.00
2019-04-06T04:10:29.556Z,135.00
2019-04-06T04:11:29.614Z,135.00
2019-04-06T04:12:29.612Z,160.11
2019-04-06T04:13:29.553Z,270.00
2019-04-06T04:14:29.697Z,270.00
2019-04-06T04:15:29.575Z,270.00
2019-04-06T04:16:29.888Z,270.00
2019-04-06T04:17:29.616Z,191.79
2019-04-06T04:18:29.624Z,135.00
2019-04-06T04:19:29.579Z,135.00
2019-04-06T04:20:29.552Z,135.00
2019-04-06T04:21:29.578Z,135.00
2019-04-06T04:22:29.580Z,135.00
2019-04-06T04:23:29.630Z,135.00
2019-04-06T04:24:29.624Z,135.00
2019-04-06T04:25:29.572Z,135.00
2019-04-06T04:26:29.583Z,135.00
2019-04-06T04:27:30.465Z,135.00
2019-04-06T04:28:29.577Z,135.00
2019-04-06T04:29:29.629Z,135.00
2019-04-06T04:30:33.415Z,135.00
2019-04-06T04:31:29.570Z,135.00
2019-04-06T04:32:29.581Z,135.00
2019-04-06T04:33:29.634Z,135.00
2019-04-06T04:34:29.628Z,135.00
2019-04-06T04:35:29.630Z,135.00
2019-04-06T04:36:29.638Z,135.00
2019-04-06T04:37:29.573Z,135.00
2019-04-06T04:38:29.600Z,135.00
2019-04-06T04:39:29.606Z,135.00
2019-04-06T04:40:29.609Z,176.31
2019-04-06T04:41:29.674Z,270.00
2019-04-06T04:42:29.689Z,270.00
2019-04-06T04:43:29.578Z,232.41
2019-04-06T04:44:29.602Z,225.00
2019-04-06T04:45:29.616Z,225.00
2019-04-06T04:46:29.619Z,225.00
2019-04-06T04:47:29.630Z,225.00
2019-04-06T04:48:29.629Z,225.00
2019-04-06T04:49:29.585Z,225.00
2019-04-06T04:50:29.640Z,225.00
2019-04-06T04:51:29.621Z,225.00
2019-04-06T04:52:29.739Z,225.00
2019-04-06T04:53:29.654Z,225.00
2019-04-06T04:54:29.655Z,225.00
2019-04-06T04:55:29.605Z,225.00
2019-04-06T04:56:29.626Z,225.00
2019-04-06T04:57:39.608Z,225.00
2019-04-06T04:58:29.606Z,260.00
2019-04-06T04:59:29.857Z,270.00
2019-04-06T05:00:29.661Z,291.55
2019-04-06T05:01:29.606Z,268.95
2019-04-06T05:02:29.654Z,275.29
2019-04-06T05:03:29.642Z,270.00
2019-04-06T05:04:29.610Z,270.00
2019-04-06T05:05:29.613Z,270.00
2019-04-06T05:06:29.653Z,270.00
2019-04-06T05:07:29.609Z,270.00
2019-04-06T05:08:29.610Z,270.00
2019-04-06T05:09:29.635Z,270.00
2019-04-06T05:10:29.603Z,270.00
2019-04-06T05:11:29.663Z,270.00
2019-04-06T05:12:29.639Z,270.00
2019-04-06T05:13:29.606Z,270.00
2019-04-06T05:14:29.629Z,270.00
2019-04-06T05:15:29.648Z,270.00
2019-04-06T05:16:29.617Z,270.00
2019-04-06T05:17:29.676Z,270.00
2019-04-06T05:18:29.665Z,270.00
2019-04-06T05:19:29.616Z,270.00
2019-04-06T05:20:29.632Z,270.00
2019-04-06T05:21:29.635Z,270.00
2019-04-06T05:22:29.602Z,270.00
2019-04-06T05:23:29.643Z,270.00
2019-04-06T05:24:29.801Z,270.00
2019-04-06T05:25:29.649Z,270.00
2019-04-06T05:26:37.485Z,270.00
2019-04-06T05:27:29.639Z,271.69
2019-04-06T05:28:29.608Z,315.00
2019-04-06T05:29:29.667Z,289.27
2019-04-06T05:30:29.934Z,270.00
2019-04-06T05:31:29.625Z,270.30
2019-04-06T05:32:29.636Z,270.00
2019-04-06T05:33:29.653Z,270.00
2019-04-06T05:34:29.622Z,311.07
2019-04-06T05:35:29.651Z,315.00
2019-04-06T05:36:29.646Z,306.90
2019-04-06T05:37:29.635Z,225.00
2019-04-06T05:38:29.836Z,249.34
2019-04-06T05:39:29.651Z,270.00
2019-04-06T05:40:29.628Z,270.00
2019-04-06T05:41:29.670Z,270.00
2019-04-06T05:42:29.667Z,270.00
2019-04-06T05:43:29.690Z,270.00
2019-04-06T05:44:29.640Z,270.00
2019-04-06T05:45:29.674Z,270.00
2019-04-06T05:46:29.843Z,246.19
2019-04-06T05:47:29.656Z,135.00
2019-04-06T05:48:29.689Z,135.00
2019-04-06T05:49:29.695Z,135.00
2019-04-06T05:50:29.663Z,135.00
2019-04-06T05:51:29.688Z,135.00
2019-04-06T05:52:29.653Z,135.00
2019-04-06T05:53:29.644Z,135.00
2019-04-06T05:54:29.651Z,135.00
2019-04-06T05:55:29.646Z,135.00
2019-04-06T05:56:29.655Z,135.00
2019-04-06T05:57:31.820Z,135.00
2019-04-06T05:58:29.640Z,148.21
2019-04-06T05:59:29.657Z,270.00
2019-04-06T06:00:29.719Z,312.43
2019-04-06T06:01:29.625Z,315.00
2019-04-06T06:02:29.665Z,315.00
2019-04-06T06:03:29.670Z,315.00
2019-04-06T06:04:29.672Z,273.65
2019-04-06T06:05:29.691Z,146.76
2019-04-06T06:06:29.638Z,135.00
2019-04-06T06:07:29.680Z,135.00
2019-04-06T06:08:30.572Z,135.00
2019-04-06T06:09:29.820Z,135.00
2019-04-06T06:10:29.648Z,135.00
2019-04-06T06:11:29.669Z,135.00
2019-04-06T06:12:29.677Z,135.00
2019-04-06T06:13:29.662Z,135.00
2019-04-06T06:14:29.667Z,135.00
2019-04-06T06:15:29.702Z,136.15
2019-04-06T06:16:29.688Z,90.00
2019-04-06T06:17:29.850Z,90.00
2019-04-06T06:18:29.673Z,90.00
2019-04-06T06:19:29.651Z,90.00
2019-04-06T06:20:29.699Z,90.00
2019-04-06T06:21:29.695Z,90.00
2019-04-06T06:22:29.662Z,90.00
2019-04-06T06:23:29.681Z,95.86
2019-04-06T06:24:29.723Z,97.05
2019-04-06T06:25:29.652Z,90.00
2019-04-06T06:26:29.700Z,90.00
2019-04-06T06:27:29.679Z,118.22
2019-04-06T06:28:29.658Z,129.81
2019-04-06T06:29:29.673Z,132.37
2019-04-06T06:30:29.769Z,142.22
2019-04-06T06:31:29.666Z,135.00
2019-04-06T06:32:31.108Z,135.00
2019-04-06T06:33:29.770Z,135.00
2019-04-06T06:34:29.673Z,135.00
2019-04-06T06:35:29.868Z,135.00
2019-04-06T06:36:29.689Z,135.00
2019-04-06T06:37:29.850Z,135.00
2019-04-06T06:38:29.695Z,135.00
2019-04-06T06:39:29.714Z,135.00
2019-04-06T06:40:29.677Z,135.00
2019-04-06T06:41:29.737Z,135.00
2019-04-06T06:42:29.753Z,135.00
2019-04-06T06:43:29.681Z,135.00
2019-04-06T06:44:29.750Z,135.00
2019-04-06T06:45:29.714Z,135.00
2019-04-06T06:46:29.674Z,133.93
2019-04-06T06:47:29.862Z,101.51
2019-04-06T06:48:29.739Z,128.40
2019-04-06T06:49:29.854Z,103.37
2019-04-06T06:50:30.036Z,216.92
2019-04-06T06:51:29.713Z,90.00
2019-04-06T06:52:29.697Z,5.59
2019-04-06T06:53:29.681Z,15.16
2019-04-06T06:54:29.718Z,0.00
2019-04-06T06:55:29.689Z,331.13
2019-04-06T06:56:29.724Z,315.81
2019-04-06T06:57:29.715Z,337.96
2019-04-06T06:58:29.686Z,38.64
2019-04-06T06:59:29.923Z,90.00
2019-04-06T07:00:29.752Z,95.46
2019-04-06T07:01:29.714Z,103.41
2019-04-06T07:02:29.732Z,192.18
2019-04-06T07:03:29.771Z,24.75
2019-04-06T07:04:29.737Z,200.72
2019-04-06T07:05:29.819Z,202.51
2019-04-06T07:06:29.801Z,134.44
2019-04-06T07:07:29.783Z,120.83
2019-04-06T07:08:29.789Z,174.49
2019-04-06T07:09:29.833Z,118.99
2019-04-06T07:10:29.853Z,87.89
2019-04-06T07:11:29.848Z,45.00
2019-04-06T07:12:29.934Z,1.74
2019-04-06T07:13:29.840Z,284.49
2019-04-06T07:14:29.878Z,315.00
2019-04-06T07:15:29.880Z,337.93
2019-04-06T07:16:29.956Z,49.36
2019-04-06T07:17:29.906Z,315.00
2019-04-06T07:18:29.936Z,71.36
2019-04-06T07:19:29.946Z,348.85
2019-04-06T07:20:29.950Z,90.00
2019-04-06T07:21:30.182Z,76.04
2019-04-06T07:22:29.981Z,183.22
2019-04-06T07:23:29.975Z,73.91
2019-04-06T07:24:30.064Z,0.47
2019-04-06T07:25:30.182Z,26.53
2019-04-06T07:26:30.200Z,110.27
2019-04-06T07:27:30.057Z,135.21
2019-04-06T07:28:37.838Z,106.24
2019-04-06T07:29:30.043Z,126.66
2019-04-06T07:30:30.249Z,99.31
2019-04-06T07:31:30.038Z,109.82
2019-04-06T07:32:30.043Z,100.68
2019-04-06T07:33:30.106Z,92.92
2019-04-06T07:34:30.034Z,153.00
2019-04-06T07:35:30.073Z,91.65
2019-04-06T07:36:30.124Z,90.00
2019-04-06T07:37:30.055Z,90.00
2019-04-06T07:38:30.382Z,72.77
2019-04-06T07:39:30.163Z,115.89
2019-04-06T07:40:30.039Z,99.79
2019-04-06T07:41:30.074Z,129.48
2019-04-06T07:42:30.054Z,97.62
2019-04-06T07:43:30.052Z,114.50
2019-04-06T07:44:30.220Z,41.68
2019-04-06T07:45:30.080Z,300.19
2019-04-06T07:46:30.040Z,93.17
2019-04-06T07:47:30.102Z,191.59
2019-04-06T07:48:30.097Z,269.44
2019-04-06T07:49:30.278Z,73.69
2019-04-06T07:50:30.069Z,136.39
2019-04-06T07:51:30.072Z,96.00
2019-04-06T07:52:30.052Z,185.51
2019-04-06T07:53:30.081Z,348.40
2019-04-06T07:54:30.241Z,107.15
2019-04-06T07:55:30.207Z,49.99
2019-04-06T07:56:30.053Z,89.36
2019-04-06T07:57:30.118Z,91.22
2019-04-06T07:58:30.192Z,314.52
2019-04-06T07:59:30.233Z,42.94
2019-04-06T08:00:30.096Z,105.18
2019-04-06T08:01:30.175Z,94.74
2019-04-06T08:02:30.079Z,90.80
2019-04-06T08:03:30.263Z,92.67
2019-04-06T08:04:30.123Z,88.66
2019-04-06T08:05:30.080Z,113.07
2019-04-06T08:06:30.098Z,187.76
2019-04-06T08:07:30.091Z,120.62
2019-04-06T08:08:30.096Z,276.90
2019-04-06T08:09:30.149Z,47.38
2019-04-06T08:10:30.068Z,34.08
2019-04-06T08:11:30.109Z,161.57
2019-04-06T08:12:30.116Z,21.99
2019-04-06T08:13:30.088Z,311.77
2019-04-06T08:14:30.277Z,117.14
2019-04-06T08:15:30.094Z,107.72
2019-04-06T08:16:30.321Z,36.81
2019-04-06T08:17:30.108Z,97.00
2019-04-06T08:18:30.272Z,101.56
2019-04-06T08:19:30.088Z,128.59
2019-04-06T08:20:30.073Z,139.29
2019-04-06T08:21:30.317Z,57.24
2019-04-06T08:22:30.130Z,230.85
2019-04-06T08:23:30.104Z,177.10
2019-04-06T08:24:30.208Z,263.99
2019-04-06T08:25:30.108Z,215.03
2019-04-06T08:26:30.114Z,125.28
2019-04-06T08:27:30.215Z,118.84
2019-04-06T08:28:30.090Z,90.00
2019-04-06T08:29:30.160Z,97.22
2019-04-06T08:30:30.154Z,49.11
2019-04-06T08:31:30.095Z,87.11
2019-04-06T08:32:30.116Z,314.37
2019-04-06T08:33:30.113Z,272.94
2019-04-06T08:34:30.150Z,13.04
2019-04-06T08:35:30.056Z,68.95
2019-04-06T08:36:30.211Z,99.02
2019-04-06T08:37:30.109Z,198.51
2019-04-06T08:38:30.102Z,192.78
2019-04-06T08:39:30.118Z,74.90
2019-04-06T08:40:30.084Z,63.45
2019-04-06T08:41:30.099Z,113.27
2019-04-06T08:42:30.118Z,171.52
2019-04-06T08:43:30.098Z,119.93
2019-04-06T08:44:30.152Z,117.43
2019-04-06T08:45:30.182Z,111.78
2019-04-06T08:46:30.091Z,102.32
2019-04-06T08:47:30.355Z,113.23
2019-04-06T08:48:30.433Z,83.98
2019-04-06T08:49:30.111Z,100.35
2019-04-06T08:50:30.300Z,90.56
2019-04-06T08:51:30.139Z,84.40
2019-04-06T08:52:30.095Z,309.05
2019-04-06T08:53:30.122Z,264.74
2019-04-06T08:54:30.147Z,265.92
2019-04-06T08:55:30.163Z,315.00
2019-04-06T08:56:30.111Z,309.00
2019-04-06T08:57:30.417Z,270.40
2019-04-06T08:58:30.122Z,273.74
2019-04-06T08:59:30.119Z,262.76
2019-04-06T09:00:30.178Z,270.15
2019-04-06T09:01:30.140Z,280.35
2019-04-06T09:02:30.129Z,283.79
2019-04-06T09:03:30.137Z,151.99
2019-04-06T09:04:30.108Z,90.00
2019-04-06T09:05:30.167Z,330.86
2019-04-06T09:06:30.166Z,306.37
2019-04-06T09:07:30.295Z,289.28
2019-04-06T09:08:30.149Z,110.49
2019-04-06T09:09:30.126Z,281.85
2019-04-06T09:10:30.124Z,315.00
2019-04-06T09:11:30.140Z,302.98
2019-04-06T09:12:30.354Z,315.00
2019-04-06T09:13:30.136Z,320.23
2019-04-06T09:14:30.116Z,90.00
2019-04-06T09:15:30.180Z,90.00
2019-04-06T09:16:30.125Z,90.00
2019-04-06T09:17:30.128Z,72.38
2019-04-06T09:18:30.164Z,90.00
2019-04-06T09:19:30.150Z,93.39
2019-04-06T09:20:30.359Z,90.00
2019-04-06T09:21:30.158Z,298.95
2019-04-06T09:22:30.130Z,315.00
2019-04-06T09:23:30.281Z,311.87
2019-04-06T09:24:30.173Z,313.62
2019-04-06T09:25:30.252Z,315.00
2019-04-06T09:26:30.141Z,337.82
2019-04-06T09:27:30.166Z,90.00
2019-04-06T09:28:30.135Z,84.10
2019-04-06T09:29:30.121Z,41.15
2019-04-06T09:30:30.200Z,90.00
2019-04-06T09:31:30.293Z,90.00
2019-04-06T09:32:30.177Z,90.00
2019-04-06T09:33:30.153Z,90.00
2019-04-06T09:34:31.179Z,59.21
2019-04-06T09:35:30.129Z,304.60
2019-04-06T09:36:30.179Z,306.52
2019-04-06T09:37:30.164Z,312.45
2019-04-06T09:38:30.163Z,306.35
2019-04-06T09:39:30.671Z,275.12
2019-04-06T09:40:30.340Z,270.00
2019-04-06T09:41:30.283Z,270.00
2019-04-06T09:42:30.194Z,273.29
2019-04-06T09:43:30.174Z,279.62
2019-04-06T09:44:30.149Z,301.01
2019-04-06T09:45:30.176Z,296.70
2019-04-06T09:46:30.145Z,312.94
2019-04-06T09:47:30.385Z,286.63
2019-04-06T09:48:30.421Z,270.00
2019-04-06T09:49:30.223Z,309.49
2019-04-06T09:50:30.171Z,290.37
2019-04-06T09:51:30.201Z,297.68
2019-04-06T09:52:30.159Z,281.67
2019-04-06T09:53:30.185Z,296.67
2019-04-06T09:54:30.229Z,286.70
2019-04-06T09:55:30.180Z,296.34
2019-04-06T09:56:30.381Z,277.08
2019-04-06T09:57:30.318Z,270.20
2019-04-06T09:58:30.167Z,308.07
2019-04-06T09:59:35.823Z,315.00
2019-04-06T10:00:30.194Z,315.00
2019-04-06T10:01:38.560Z,315.00
2019-04-06T10:02:30.173Z,315.00
2019-04-06T10:03:30.189Z,276.55
2019-04-06T10:04:30.160Z,270.00
2019-04-06T10:05:30.185Z,300.90
2019-04-06T10:06:32.226Z,296.11
2019-04-06T10:07:30.208Z,290.76
2019-04-06T10:08:30.177Z,283.58
2019-04-06T10:09:30.509Z,280.49
2019-04-06T10:10:30.172Z,273.75
2019-04-06T10:11:30.279Z,263.13
2019-04-06T10:12:30.198Z,292.99
2019-04-06T10:13:30.201Z,45.00
2019-04-06T10:14:30.185Z,340.01
2019-04-06T10:15:30.310Z,297.19
2019-04-06T10:16:30.272Z,270.00
2019-04-06T10:17:30.179Z,270.00
2019-04-06T10:18:30.219Z,313.00
2019-04-06T10:19:30.174Z,299.16
2019-04-06T10:20:30.195Z,271.98
2019-04-06T10:21:30.214Z,270.63
2019-04-06T10:22:30.185Z,287.03
2019-04-06T10:23:30.203Z,282.53
2019-04-06T10:24:30.243Z,283.40
2019-04-06T10:25:30.200Z,279.18
2019-04-06T10:26:30.191Z,284.39
2019-04-06T10:27:30.220Z,301.01
2019-04-06T10:28:30.227Z,281.55
2019-04-06T10:29:30.186Z,289.94
2019-04-06T10:30:30.228Z,277.29
2019-04-06T10:31:30.546Z,282.43
2019-04-06T10:32:30.499Z,274.40
2019-04-06T10:33:30.261Z,275.66
2019-04-06T10:34:30.239Z,271.88
2019-04-06T10:35:30.219Z,266.94
2019-04-06T10:36:31.824Z,272.83
2019-04-06T10:37:30.347Z,273.73
2019-04-06T10:38:30.202Z,289.06
2019-04-06T10:39:30.235Z,288.92
2019-04-06T10:40:30.200Z,276.95
2019-04-06T10:41:30.502Z,275.29
2019-04-06T10:42:30.751Z,278.55
2019-04-06T10:43:30.385Z,301.27
2019-04-06T10:44:30.244Z,277.18
2019-04-06T10:45:30.232Z,299.64
2019-04-06T10:46:30.410Z,298.89
2019-04-06T10:47:30.470Z,270.00
2019-04-06T10:48:30.230Z,274.77
2019-04-06T10:49:30.220Z,310.74
2019-04-06T10:50:30.238Z,270.02
2019-04-06T10:51:30.240Z,249.81
2019-04-06T10:52:30.201Z,280.49
2019-04-06T10:53:30.489Z,284.64
2019-04-06T10:54:30.241Z,319.58
2019-04-06T10:55:30.227Z,273.54
2019-04-06T10:56:30.213Z,278.28
2019-04-06T10:57:30.212Z,283.54
2019-04-06T10:58:30.211Z,265.67
2019-04-06T10:59:30.256Z,135.00
2019-04-06T11:00:30.266Z,108.05
2019-04-06T11:01:30.323Z,59.84
2019-04-06T11:02:30.247Z,24.46
2019-04-06T11:03:30.261Z,342.13
2019-04-06T11:04:30.247Z,93.59
2019-04-06T11:05:30.265Z,69.82
2019-04-06T11:06:30.551Z,317.04
2019-04-06T11:07:30.301Z,323.81
2019-04-06T11:08:30.337Z,272.80
2019-04-06T11:09:30.324Z,283.94
2019-04-06T11:10:30.322Z,277.44
2019-04-06T11:11:30.457Z,285.53
2019-04-06T11:12:30.459Z,312.81
2019-04-06T11:13:30.547Z,286.55
2019-04-06T11:14:30.437Z,270.00
2019-04-06T11:15:30.462Z,86.09
2019-04-06T11:16:30.393Z,280.49
2019-04-06T11:17:30.415Z,275.96
2019-04-06T11:18:30.652Z,298.10
2019-04-06T11:19:30.439Z,257.65
2019-04-06T11:20:30.437Z,65.26
2019-04-06T11:21:30.470Z,271.94
2019-04-06T11:22:30.465Z,290.15
2019-04-06T11:23:30.508Z,287.01
2019-04-06T11:24:30.517Z,300.20
2019-04-06T11:25:30.512Z,296.84
2019-04-06T11:26:30.531Z,286.36
2019-04-06T11:27:30.539Z,292.48
2019-04-06T11:28:30.534Z,310.79
2019-04-06T11:29:30.603Z,242.15
2019-04-06T11:30:30.590Z,258.92
2019-04-06T11:31:30.585Z,112.91
2019-04-06T11:32:30.702Z,107.82
2019-04-06T11:33:30.613Z,117.08
2019-04-06T11:34:30.699Z,90.82
2019-04-06T11:35:30.635Z,127.20
2019-04-06T11:36:30.686Z,106.65
2019-04-06T11:37:30.686Z,104.83
2019-04-06T11:38:30.621Z,124.66
2019-04-06T11:39:30.685Z,128.95
2019-04-06T11:40:30.674Z,120.21
2019-04-06T11:41:30.886Z,93.88
2019-04-06T11:42:30.718Z,90.00
2019-04-06T11:43:30.762Z,103.18
2019-04-06T11:44:30.745Z,58.78
2019-04-06T11:45:30.832Z,69.67
2019-04-06T11:46:30.951Z,90.88
2019-04-06T11:47:30.905Z,94.04
2019-04-06T11:48:30.869Z,132.01
2019-04-06T11:49:30.787Z,101.46
2019-04-06T11:50:30.811Z,93.07
2019-04-06T11:51:30.834Z,108.06
2019-04-06T11:52:30.811Z,115.71
2019-04-06T11:53:30.852Z,122.14
2019-04-06T11:54:30.887Z,98.31
2019-04-06T11:55:30.852Z,90.20
2019-04-06T11:56:30.887Z,99.30
2019-04-06T11:57:30.890Z,112.45
2019-04-06T11:58:30.877Z,93.15
2019-04-06T11:59:30.952Z,90.92
2019-04-06T12:00:30.937Z,95.63
2019-04-06T12:01:30.935Z,91.35
2019-04-06T12:02:30.955Z,103.10
2019-04-06T12:03:30.960Z,297.71
2019-04-06T12:04:30.971Z,312.47
2019-04-06T12:05:30.997Z,135.00
2019-04-06T12:06:31.002Z,321.52
2019-04-06T12:07:31.214Z,225.00
2019-04-06T12:08:31.022Z,45.00
2019-04-06T12:09:31.077Z,277.53
2019-04-06T12:10:31.078Z,9.44
2019-04-06T12:11:31.063Z,98.26
2019-04-06T12:12:31.093Z,237.34
2019-04-06T12:13:31.070Z,99.91
2019-04-06T12:14:31.106Z,63.99
2019-04-06T12:15:31.209Z,247.14
2019-04-06T12:16:31.402Z,249.69
2019-04-06T12:17:31.158Z,86.14
2019-04-06T12:18:31.162Z,35.51
2019-04-06T12:19:31.136Z,114.64
2019-04-06T12:20:31.189Z,70.47
2019-04-06T12:21:31.182Z,122.35
2019-04-06T12:22:31.191Z,324.46
2019-04-06T12:23:33.305Z,30.08
2019-04-06T12:24:31.222Z,358.80
2019-04-06T12:25:31.431Z,45.73
2019-04-06T12:26:31.221Z,26.95
2019-04-06T12:27:31.292Z,186.44
2019-04-06T12:28:31.265Z,91.53
2019-04-06T12:29:31.258Z,45.00
2019-04-06T12:30:37.208Z,36.66
2019-04-06T12:31:31.277Z,30.87
2019-04-06T12:32:31.262Z,66.65
2019-04-06T12:33:31.322Z,124.36
2019-04-06T12:34:31.465Z,165.44